sensor_id;sensor_type;location;lat;lon;timestamp;pressure;altitude;pressure_sealevel;temperature;humidity
80869;BME280;70295;40.182;44.498;2023-09-18T00:01:14;90080.02;;;19.64;39.93574
80869;BME280;70295;40.182;44.498;2023-09-18T00:03:14;90081.88;;;19.7;39.90644
80869;BME280;70295;40.182;44.498;2023-09-18T00:10:36;90087.36;;;19.85;39.70527
80869;BME280;70295;40.182;44.498;2023-09-18T00:12:36;90083.45;;;19.87;39.67305
80869;BME280;70295;40.182;44.498;2023-09-18T00:14:36;90084.48;;;19.88;39.58418
80869;BME280;70295;40.182;44.498;2023-09-18T00:16:35;90086.2;;;19.87;39.55879
80869;BME280;70295;40.182;44.498;2023-09-18T00:18:24;90082.78;;;19.83;39.61348
80869;BME280;70295;40.182;44.498;2023-09-18T00:21:22;90083.81;;;19.81;39.74629
80869;BME280;70295;40.182;44.498;2023-09-18T00:25:48;90081.83;;;19.84;39.9084
80869;BME280;70295;40.182;44.498;2023-09-18T00:27:54;90085.69;;;19.86;39.89863
80869;BME280;70295;40.182;44.498;2023-09-18T00:29:54;90082.73;;;19.87;39.89961
80869;BME280;70295;40.182;44.498;2023-09-18T00:33:52;90083.34;;;19.76;40.16133
80869;BME280;70295;40.182;44.498;2023-09-18T00:37:48;90089.42;;;19.64;40.47773
80869;BME280;70295;40.182;44.498;2023-09-18T00:39:49;90090.48;;;19.61;40.58906
80869;BME280;70295;40.182;44.498;2023-09-18T00:46:26;90094.52;;;19.6;40.71211
80869;BME280;70295;40.182;44.498;2023-09-18T00:48:26;90092.54;;;19.59;40.80293
80869;BME280;70295;40.182;44.498;2023-09-18T00:50:26;90091.89;;;19.61;40.80488
80869;BME280;70295;40.182;44.498;2023-09-18T00:52:26;90092.25;;;19.61;40.71406
80869;BME280;70295;40.182;44.498;2023-09-18T00:54:26;90090.66;;;19.57;40.58516
80869;BME280;70295;40.182;44.498;2023-09-18T00:56:26;90094.68;;;19.53;40.58223
80869;BME280;70295;40.182;44.498;2023-09-18T00:58:26;90092.59;;;19.48;40.62226
80869;BME280;70295;40.182;44.498;2023-09-18T01:00:26;90089.32;;;19.46;40.66426
80869;BME280;70295;40.182;44.498;2023-09-18T01:02:26;90088.12;;;19.41;40.67109
80869;BME280;70295;40.182;44.498;2023-09-18T01:04:26;90089.55;;;19.41;40.69453
80869;BME280;70295;40.182;44.498;2023-09-18T01:06:26;90092.74;;;19.39;40.69258
80869;BME280;70295;40.182;44.498;2023-09-18T01:08:26;90086.45;;;19.38;40.7707
80869;BME280;70295;40.182;44.498;2023-09-18T01:10:28;90083.34;;;19.39;40.7375
80869;BME280;70295;40.182;44.498;2023-09-18T01:18:26;90087.63;;;19.4;40.56953
80869;BME280;70295;40.182;44.498;2023-09-18T01:20:26;90084.75;;;19.4;40.51191
80869;BME280;70295;40.182;44.498;2023-09-18T01:22:29;90083.31;;;19.4;40.48945
80869;BME280;70295;40.182;44.498;2023-09-18T01:24:26;90084.52;;;19.4;40.45625
80869;BME280;70295;40.182;44.498;2023-09-18T01:26:26;90088.91;;;19.43;40.41328
80869;BME280;70295;40.182;44.498;2023-09-18T01:28:26;90086.22;;;19.46;40.31367
80869;BME280;70295;40.182;44.498;2023-09-18T01:30:26;90088.42;;;19.49;40.2834
80869;BME280;70295;40.182;44.498;2023-09-18T01:32:27;90087.66;;;19.49;40.23945
80869;BME280;70295;40.182;44.498;2023-09-18T01:34:27;90091.3;;;19.49;40.23848
80869;BME280;70295;40.182;44.498;2023-09-18T01:36:26;90086.16;;;19.47;40.24726
80869;BME280;70295;40.182;44.498;2023-09-18T01:38:26;90090.55;;;19.46;40.31367
80869;BME280;70295;40.182;44.498;2023-09-18T01:40:26;90091.97;;;19.43;40.3791
80869;BME280;70295;40.182;44.498;2023-09-18T01:42:26;90090.48;;;19.4;40.46797
80869;BME280;70295;40.182;44.498;2023-09-18T01:44:26;90088.55;;;19.43;40.46992
80869;BME280;70295;40.182;44.498;2023-09-18T01:46:26;90092.14;;;19.43;40.49336
80869;BME280;70295;40.182;44.498;2023-09-18T01:48:26;90090.84;;;19.44;40.53828
80869;BME280;70295;40.182;44.498;2023-09-18T01:50:26;90093.7;;;19.45;40.54023
80869;BME280;70295;40.182;44.498;2023-09-18T01:52:26;90092.2;;;19.46;40.57441
80869;BME280;70295;40.182;44.498;2023-09-18T01:54:26;90088.48;;;19.44;40.5959
80869;BME280;70295;40.182;44.498;2023-09-18T01:56:26;90091.6;;;19.47;40.64375
80869;BME280;70295;40.182;44.498;2023-09-18T01:58:26;90094.87;;;19.5;40.6457
80869;BME280;70295;40.182;44.498;2023-09-18T02:00:26;90097.7;;;19.54;40.60566
80869;BME280;70295;40.182;44.498;2023-09-18T02:02:26;90098.02;;;19.58;40.59785
80869;BME280;70295;40.182;44.498;2023-09-18T02:04:26;90103.8;;;19.62;40.58906
80869;BME280;70295;40.182;44.498;2023-09-18T02:06:26;90105.47;;;19.64;40.58125
80869;BME280;70295;40.182;44.498;2023-09-18T02:08:26;90103.84;;;19.64;40.73945
80869;BME280;70295;40.182;44.498;2023-09-18T02:10:26;90108;;;19.61;41.10859
80869;BME280;70295;40.182;44.498;2023-09-18T02:12:26;90106.79;;;19.53;41.51973
80869;BME280;70295;40.182;44.498;2023-09-18T02:14:26;90107.75;;;19.45;41.89668
80869;BME280;70295;40.182;44.498;2023-09-18T02:16:26;90114.3;;;19.41;42.0168
80869;BME280;70295;40.182;44.498;2023-09-18T02:18:26;90112.95;;;19.36;42.1125
80869;BME280;70295;40.182;44.498;2023-09-18T02:20:26;90112.64;;;19.34;42.16719
80869;BME280;70295;40.182;44.498;2023-09-18T02:22:26;90116.48;;;19.33;42.17891
80869;BME280;70295;40.182;44.498;2023-09-18T02:24:26;90116.95;;;19.31;42.23359
80869;BME280;70295;40.182;44.498;2023-09-18T02:26:26;90117.87;;;19.31;42.19844
80869;BME280;70295;40.182;44.498;2023-09-18T02:28:26;90118.2;;;19.28;42.30976
80869;BME280;70295;40.182;44.498;2023-09-18T02:30:26;90121.7;;;19.23;42.40644
80869;BME280;70295;40.182;44.498;2023-09-18T02:32:26;90121.2;;;19.19;42.59394
80869;BME280;70295;40.182;44.498;2023-09-18T02:34:26;90121.27;;;19.18;42.71699
80869;BME280;70295;40.182;44.498;2023-09-18T02:36:26;90122.02;;;19.17;42.72773
80869;BME280;70295;40.182;44.498;2023-09-18T02:38:27;90123.62;;;19.17;42.73848
80869;BME280;70295;40.182;44.498;2023-09-18T02:40:26;90126.17;;;19.17;42.67109
80869;BME280;70295;40.182;44.498;2023-09-18T02:42:26;90129.72;;;19.15;42.5334
80869;BME280;70295;40.182;44.498;2023-09-18T02:44:26;90127.89;;;19.05;42.58027
80869;BME280;70295;40.182;44.498;2023-09-18T02:46:26;90129.95;;;18.93;42.70332
80869;BME280;70295;40.182;44.498;2023-09-18T02:48:26;90134.7;;;18.88;42.8791
80869;BME280;70295;40.182;44.498;2023-09-18T02:50:26;90136.05;;;18.82;42.93086
80869;BME280;70295;40.182;44.498;2023-09-18T02:52:26;90137.84;;;18.79;42.94941
80869;BME280;70295;40.182;44.498;2023-09-18T02:54:26;90138.95;;;18.75;42.84492
80869;BME280;70295;40.182;44.498;2023-09-18T02:56:26;90144.59;;;18.74;43.03437
80869;BME280;70295;40.182;44.498;2023-09-18T02:58:26;90146.25;;;18.77;43.07051
80869;BME280;70295;40.182;44.498;2023-09-18T03:00:26;90145.3;;;18.82;43.04219
80869;BME280;70295;40.182;44.498;2023-09-18T03:02:26;90146.89;;;18.86;43.05781
80869;BME280;70295;40.182;44.498;2023-09-18T03:04:26;90147.97;;;18.89;43.05
80869;BME280;70295;40.182;44.498;2023-09-18T03:06:26;90150.28;;;18.94;42.97578
80869;BME280;70295;40.182;44.498;2023-09-18T03:08:26;90153.16;;;18.94;42.96504
80869;BME280;70295;40.182;44.498;2023-09-18T03:10:26;90155.77;;;18.95;42.9084
80869;BME280;70295;40.182;44.498;2023-09-18T03:12:26;90151.91;;;18.94;42.8625
80869;BME280;70295;40.182;44.498;2023-09-18T03:14:26;90160.67;;;18.88;42.94648
80869;BME280;70295;40.182;44.498;2023-09-18T03:16:26;90161.04;;;18.81;43.01875
80869;BME280;70295;40.182;44.498;2023-09-18T03:18:26;90166.25;;;18.77;43.09492
80869;BME280;70295;40.182;44.498;2023-09-18T03:20:26;90162.7;;;18.76;43.20625
80869;BME280;70295;40.182;44.498;2023-09-18T03:22:26;90166.09;;;18.7;43.29023
80869;BME280;70295;40.182;44.498;2023-09-18T03:24:26;90167.07;;;18.68;43.54805
80869;BME280;70295;40.182;44.498;2023-09-18T03:26:26;90168.34;;;18.71;43.52851
80869;BME280;70295;40.182;44.498;2023-09-18T03:28:26;90170.28;;;18.72;43.42793
80869;BME280;70295;40.182;44.498;2023-09-18T03:30:26;90168.75;;;18.71;43.43769
80869;BME280;70295;40.182;44.498;2023-09-18T03:32:26;90168.58;;;18.63;43.50898
80869;BME280;70295;40.182;44.498;2023-09-18T03:39:36;90185.33;;;18.71;43.85469
80869;BME280;70295;40.182;44.498;2023-09-18T03:41:36;90188.3;;;18.76;43.73652
80869;BME280;70295;40.182;44.498;2023-09-18T03:43:35;90192.07;;;18.8;43.62812
80869;BME280;70295;40.182;44.498;2023-09-18T03:45:36;90196.47;;;18.82;43.51777
80869;BME280;70295;40.182;44.498;2023-09-18T03:47:36;90192.96;;;18.81;43.40254
80869;BME280;70295;40.182;44.498;2023-09-18T03:49:35;90189.83;;;18.78;43.42305
80869;BME280;70295;40.182;44.498;2023-09-18T03:51:46;90189.06;;;18.79;43.43476
80869;BME280;70295;40.182;44.498;2023-09-18T03:53:46;90192.3;;;18.79;43.41328
80869;BME280;70295;40.182;44.498;2023-09-18T03:55:46;90193.78;;;18.79;43.42305
80869;BME280;70295;40.182;44.498;2023-09-18T03:57:46;90193.97;;;18.79;43.39961
80869;BME280;70295;40.182;44.498;2023-09-18T03:59:46;90196.08;;;18.8;43.3791
80869;BME280;70295;40.182;44.498;2023-09-18T04:01:46;90193.7;;;18.8;43.25605
80869;BME280;70295;40.182;44.498;2023-09-18T04:05:39;90188.16;;;18.72;43.13398
80869;BME280;70295;40.182;44.498;2023-09-18T04:09:22;90194.39;;;18.73;43.24824
80869;BME280;70295;40.182;44.498;2023-09-18T04:11:22;90195.3;;;18.77;43.1623
80869;BME280;70295;40.182;44.498;2023-09-18T04:13:22;90197.13;;;18.8;43.02949
80869;BME280;70295;40.182;44.498;2023-09-18T04:15:22;90199.47;;;18.8;42.73652
80869;BME280;70295;40.182;44.498;2023-09-18T04:17:22;90199.45;;;18.81;42.60176
80869;BME280;70295;40.182;44.498;2023-09-18T04:24:18;90202.88;;;18.92;42.17207
80869;BME280;70295;40.182;44.498;2023-09-18T04:26:18;90199.03;;;18.93;42.04902
80869;BME280;70295;40.182;44.498;2023-09-18T04:28:18;90197.02;;;18.97;42.09883
80869;BME280;70295;40.182;44.498;2023-09-18T04:30:18;90200.88;;;19.03;42.00215
80869;BME280;70295;40.182;44.498;2023-09-18T04:32:18;90198.42;;;19.01;41.79707
80869;BME280;70295;40.182;44.498;2023-09-18T04:34:18;90203.84;;;19.05;41.85762
80869;BME280;70295;40.182;44.498;2023-09-18T04:36:18;90197.45;;;19.1;41.92988
80869;BME280;70295;40.182;44.498;2023-09-18T04:38:18;90201.71;;;19.29;41.83516
80869;BME280;70295;40.182;44.498;2023-09-18T04:40:18;90196.05;;;19.48;41.86543
80869;BME280;70295;40.182;44.498;2023-09-18T04:42:18;90196.48;;;19.81;41.41133
80869;BME280;70295;40.182;44.498;2023-09-18T04:44:18;90195.81;;;19.98;40.8498
80869;BME280;70295;40.182;44.498;2023-09-18T04:46:18;90195.98;;;20.18;40.44941
80869;BME280;70295;40.182;44.498;2023-09-18T04:48:18;90200.86;;;20.29;40.24434
80869;BME280;70295;40.182;44.498;2023-09-18T04:50:18;90197.36;;;20.46;40.10176
80869;BME280;70295;40.182;44.498;2023-09-18T04:52:18;90201.63;;;20.7;39.9084
80869;BME280;70295;40.182;44.498;2023-09-18T04:54:18;90192.78;;;20.96;39.50117
80869;BME280;70295;40.182;44.498;2023-09-18T04:56:18;90198.34;;;21.15;39.09785
80869;BME280;70295;40.182;44.498;2023-09-18T04:58:18;90196.52;;;21.18;38.39766
80869;BME280;70295;40.182;44.498;2023-09-18T05:00:18;90200.98;;;21.17;38.31562
80869;BME280;70295;40.182;44.498;2023-09-18T05:02:18;90203.81;;;21.18;38.39668
80869;BME280;70295;40.182;44.498;2023-09-18T05:04:18;90202.29;;;21.28;38.55293
80869;BME280;70295;40.182;44.498;2023-09-18T05:06:18;90201.39;;;21.34;38.16133
80869;BME280;70295;40.182;44.498;2023-09-18T05:08:18;90202.41;;;21.42;38.26973
80869;BME280;70295;40.182;44.498;2023-09-18T05:10:18;90204.31;;;21.56;37.9416
80869;BME280;70295;40.182;44.498;2023-09-18T05:12:18;90208.97;;;21.66;37.69941
80869;BME280;70295;40.182;44.498;2023-09-18T05:14:18;90208.76;;;21.7;37.30488
80869;BME280;70295;40.182;44.498;2023-09-18T05:20:12;90213.14;;;21.96;36.76973
80869;BME280;70295;40.182;44.498;2023-09-18T05:22:12;90211.83;;;22.05;36.33418
80869;BME280;70295;40.182;44.498;2023-09-18T05:24:12;90209.74;;;21.98;36.06562
80869;BME280;70295;40.182;44.498;2023-09-18T05:26:12;90211.69;;;21.87;36.06758
80869;BME280;70295;40.182;44.498;2023-09-18T05:28:12;90209.61;;;21.89;36.09199
80869;BME280;70295;40.182;44.498;2023-09-18T05:30:13;90209;;;22.04;36.27656
80869;BME280;70295;40.182;44.498;2023-09-18T05:32:12;90214.07;;;22.28;35.9084
80869;BME280;70295;40.182;44.498;2023-09-18T05:34:12;90214.58;;;22.41;35.48555
80869;BME280;70295;40.182;44.498;2023-09-18T05:38:14;90217.27;;;22.32;35.19355
80869;BME280;70295;40.182;44.498;2023-09-18T05:40:14;90218.72;;;22.23;35.18672
80869;BME280;70295;40.182;44.498;2023-09-18T05:42:14;90220.1;;;22.15;35.17988
80869;BME280;70295;40.182;44.498;2023-09-18T05:44:14;90218.67;;;22.09;35.2209
80869;BME280;70295;40.182;44.498;2023-09-18T05:46:14;90214.14;;;22.09;35.28926
80869;BME280;70295;40.182;44.498;2023-09-18T05:48:13;90216.31;;;22.09;35.17598
80869;BME280;70295;40.182;44.498;2023-09-18T05:50:14;90216.73;;;21.91;35.04609
80869;BME280;70295;40.182;44.498;2023-09-18T05:52:14;90215.63;;;21.85;35.34883
80869;BME280;70295;40.182;44.498;2023-09-18T05:54:14;90212.88;;;21.89;35.4543
80869;BME280;70295;40.182;44.498;2023-09-18T05:56:14;90216.38;;;21.93;35.49141
80869;BME280;70295;40.182;44.498;2023-09-18T05:58:14;90216.47;;;21.95;35.42598
80869;BME280;70295;40.182;44.498;2023-09-18T06:05:05;90222.11;;;21.92;34.94453
80869;BME280;70295;40.182;44.498;2023-09-18T06:07:05;90220.51;;;21.94;34.94648
80869;BME280;70295;40.182;44.498;2023-09-18T06:09:04;90219.79;;;21.88;34.75898
80869;BME280;70295;40.182;44.498;2023-09-18T06:11:04;90217.18;;;21.77;34.79609
80869;BME280;70295;40.182;44.498;2023-09-18T06:13:05;90220.17;;;21.72;35.06562
80869;BME280;70295;40.182;44.498;2023-09-18T06:15:05;90217.89;;;21.8;35.15156
80869;BME280;70295;40.182;44.498;2023-09-18T06:17:05;90216.86;;;21.92;35.13789
80869;BME280;70295;40.182;44.498;2023-09-18T06:19:04;90218.01;;;22.11;35.07441
80869;BME280;70295;40.182;44.498;2023-09-18T06:21:04;90216.23;;;22.28;34.79219
80869;BME280;70295;40.182;44.498;2023-09-18T06:23:04;90217.44;;;22.42;34.59687
80869;BME280;70295;40.182;44.498;2023-09-18T06:25:05;90214.86;;;22.56;34.31172
80869;BME280;70295;40.182;44.498;2023-09-18T06:27:05;90209.05;;;22.62;34.24922
80869;BME280;70295;40.182;44.498;2023-09-18T06:29:04;90213.58;;;22.65;34.36445
80869;BME280;70295;40.182;44.498;2023-09-18T06:31:04;90210.25;;;22.66;34.27461
80869;BME280;70295;40.182;44.498;2023-09-18T06:33:05;90212.79;;;22.66;34.16035
80869;BME280;70295;40.182;44.498;2023-09-18T06:35:04;90211.12;;;22.64;34.12422
80869;BME280;70295;40.182;44.498;2023-09-18T06:37:04;90214.36;;;22.59;33.96016
80869;BME280;70295;40.182;44.498;2023-09-18T06:39:04;90209.41;;;22.48;34.2375
80869;BME280;70295;40.182;44.498;2023-09-18T06:47:52;90203.14;;;22.53;34.17207
80869;BME280;70295;40.182;44.498;2023-09-18T06:49:52;90206.13;;;22.57;34.03926
80869;BME280;70295;40.182;44.498;2023-09-18T06:51:52;90203.63;;;22.59;33.91523
80869;BME280;70295;40.182;44.498;2023-09-18T06:54:39;90202.37;;;22.62;33.89473
80869;BME280;70295;40.182;44.498;2023-09-18T06:56:39;90197.36;;;22.64;34.07832
80869;BME280;70295;40.182;44.498;2023-09-18T06:58:40;90199.55;;;22.66;34.08027
80869;BME280;70295;40.182;44.498;2023-09-18T07:00:39;90204.84;;;22.69;33.99043
80869;BME280;70295;40.182;44.498;2023-09-18T07:02:40;90200.59;;;22.7;33.93476
80869;BME280;70295;40.182;44.498;2023-09-18T07:04:39;90195.8;;;22.71;33.94746
80869;BME280;70295;40.182;44.498;2023-09-18T07:06:39;90197.1;;;22.73;33.99531
80869;BME280;70295;40.182;44.498;2023-09-18T07:08:39;90200.06;;;22.73;34.02754
80869;BME280;70295;40.182;44.498;2023-09-18T07:10:39;90199.81;;;22.68;34.05879
80869;BME280;70295;40.182;44.498;2023-09-18T07:12:40;90198.98;;;22.61;34.16719
80869;BME280;70295;40.182;44.498;2023-09-18T07:14:39;90200.89;;;22.51;34.11348
80869;BME280;70295;40.182;44.498;2023-09-18T07:16:39;90198.8;;;22.44;34.26777
80869;BME280;70295;40.182;44.498;2023-09-18T07:18:39;90192.86;;;22.4;34.40156
80869;BME280;70295;40.182;44.498;2023-09-18T07:20:43;90195.13;;;22.42;34.42598
80869;BME280;70295;40.182;44.498;2023-09-18T07:22:39;90193.89;;;22.47;34.3957
80869;BME280;70295;40.182;44.498;2023-09-18T07:24:40;90192.36;;;22.48;34.32832
80869;BME280;70295;40.182;44.498;2023-09-18T07:26:39;90193.92;;;22.49;34.20332
80869;BME280;70295;40.182;44.498;2023-09-18T07:28:40;90193.47;;;22.53;34.08223
80869;BME280;70295;40.182;44.498;2023-09-18T07:30:39;90189.23;;;22.54;33.99141
80869;BME280;70295;40.182;44.498;2023-09-18T07:32:39;90185.09;;;22.57;34.11836
80869;BME280;70295;40.182;44.498;2023-09-18T07:34:39;90186.58;;;22.62;34.17988
80869;BME280;70295;40.182;44.498;2023-09-18T07:36:39;90180.61;;;22.64;34.0793
80869;BME280;70295;40.182;44.498;2023-09-18T07:38:40;90183.07;;;22.68;34.08223
80869;BME280;70295;40.182;44.498;2023-09-18T07:40:39;90183.78;;;22.74;34.07539
80869;BME280;70295;40.182;44.498;2023-09-18T07:42:39;90179.53;;;22.78;33.90742
80869;BME280;70295;40.182;44.498;2023-09-18T07:44:39;90179.05;;;22.77;33.91816
80869;BME280;70295;40.182;44.498;2023-09-18T07:46:42;90176.9;;;22.74;33.99531
80869;BME280;70295;40.182;44.498;2023-09-18T07:48:42;90178.44;;;22.76;34.06465
80869;BME280;70295;40.182;44.498;2023-09-18T07:50:43;90172.91;;;22.8;33.95332
80869;BME280;70295;40.182;44.498;2023-09-18T07:52:42;90166.4;;;22.82;34.01289
80869;BME280;70295;40.182;44.498;2023-09-18T07:54:41;90164.22;;;22.85;33.99238
80869;BME280;70295;40.182;44.498;2023-09-18T07:56:42;90168.8;;;22.9;33.99629
80869;BME280;70295;40.182;44.498;2023-09-18T07:58:41;90165.36;;;22.96;33.90937
80869;BME280;70295;40.182;44.498;2023-09-18T08:00:42;90160.35;;;23;33.84394
80869;BME280;70295;40.182;44.498;2023-09-18T08:02:42;90162.82;;;23.04;33.92793
80869;BME280;70295;40.182;44.498;2023-09-18T08:04:42;90156.45;;;23.07;33.81562
80869;BME280;70295;40.182;44.498;2023-09-18T08:06:41;90158;;;23.11;34.00117
80869;BME280;70295;40.182;44.498;2023-09-18T08:08:42;90156.13;;;23.18;33.97285
80869;BME280;70295;40.182;44.498;2023-09-18T08:10:42;90151.91;;;23.24;34.02266
80869;BME280;70295;40.182;44.498;2023-09-18T08:12:42;90145.21;;;23.29;33.9582
80869;BME280;70295;40.182;44.498;2023-09-18T08:14:42;90142.84;;;23.32;33.77754
80869;BME280;70295;40.182;44.498;2023-09-18T08:16:42;90143.22;;;23.34;33.66523
80869;BME280;70295;40.182;44.498;2023-09-18T08:18:42;90142.4;;;23.38;33.67988
80869;BME280;70295;40.182;44.498;2023-09-18T08:20:42;90138.3;;;23.42;33.60273
80869;BME280;70295;40.182;44.498;2023-09-18T08:22:42;90137.27;;;23.44;33.56953
80869;BME280;70295;40.182;44.498;2023-09-18T08:24:42;90133.63;;;23.47;33.74336
80869;BME280;70295;40.182;44.498;2023-09-18T08:26:42;90137.13;;;23.52;33.86152
80869;BME280;70295;40.182;44.498;2023-09-18T08:28:42;90128.2;;;23.54;33.84101
80869;BME280;70295;40.182;44.498;2023-09-18T08:30:41;90125.29;;;23.54;33.70332
80869;BME280;70295;40.182;44.498;2023-09-18T08:32:42;90125.49;;;23.52;33.68965
80869;BME280;70295;40.182;44.498;2023-09-18T08:34:42;90127.92;;;23.43;33.67109
80869;BME280;70295;40.182;44.498;2023-09-18T08:36:42;90126.66;;;23.43;33.75117
80869;BME280;70295;40.182;44.498;2023-09-18T08:38:42;90124.48;;;23.45;33.74238
80869;BME280;70295;40.182;44.498;2023-09-18T08:40:42;90123.44;;;23.47;33.70918
80869;BME280;70295;40.182;44.498;2023-09-18T08:44:42;90125.46;;;23.44;33.74141
80869;BME280;70295;40.182;44.498;2023-09-18T08:46:42;90124.38;;;23.44;33.67305
80869;BME280;70295;40.182;44.498;2023-09-18T08:48:42;90120.67;;;23.42;33.70527
80869;BME280;70295;40.182;44.498;2023-09-18T08:50:42;90124.27;;;23.35;33.71113
80869;BME280;70295;40.182;44.498;2023-09-18T08:52:42;90112.91;;;23.28;33.76387
80869;BME280;70295;40.182;44.498;2023-09-18T08:54:42;90112.06;;;23.27;33.86543
80869;BME280;70295;40.182;44.498;2023-09-18T08:56:41;90106.34;;;23.34;34.00898
80869;BME280;70295;40.182;44.498;2023-09-18T08:58:41;90106.48;;;23.43;34.13984
80869;BME280;70295;40.182;44.498;2023-09-18T09:00:42;90103.76;;;23.51;34.00996
80869;BME280;70295;40.182;44.498;2023-09-18T09:02:42;90103.14;;;23.57;33.87715
80869;BME280;70295;40.182;44.498;2023-09-18T09:04:41;90103.77;;;23.53;33.56562
80869;BME280;70295;40.182;44.498;2023-09-18T09:06:42;90102.79;;;23.51;33.57539
80869;BME280;70295;40.182;44.498;2023-09-18T09:08:42;90102.54;;;23.47;33.4582
80869;BME280;70295;40.182;44.498;2023-09-18T09:10:42;90101.25;;;23.48;33.48164
80869;BME280;70295;40.182;44.498;2023-09-18T09:14:46;90092.72;;;23.58;33.60371
80869;BME280;70295;40.182;44.498;2023-09-18T09:16:44;90083.81;;;23.66;33.55293
80869;BME280;70295;40.182;44.498;2023-09-18T09:20:41;90082.72;;;23.77;33.42402
80869;BME280;70295;40.182;44.498;2023-09-18T09:22:42;90084.19;;;23.79;33.35664
80869;BME280;70295;40.182;44.498;2023-09-18T09:24:42;90082.74;;;23.82;33.29023
80869;BME280;70295;40.182;44.498;2023-09-18T09:26:42;90070.73;;;23.84;33.17793
80869;BME280;70295;40.182;44.498;2023-09-18T09:28:43;90066.39;;;23.86;33.05391
80869;BME280;70295;40.182;44.498;2023-09-18T09:30:42;90065.41;;;23.88;32.95137
80869;BME280;70295;40.182;44.498;2023-09-18T09:32:42;90065.73;;;23.88;32.92891
80869;BME280;70295;40.182;44.498;2023-09-18T09:34:42;90067.73;;;23.85;32.92695
80869;BME280;70295;40.182;44.498;2023-09-18T09:38:42;90065.19;;;23.81;32.99238
80869;BME280;70295;40.182;44.498;2023-09-18T09:40:41;90060.78;;;23.76;32.90742
80869;BME280;70295;40.182;44.498;2023-09-18T09:42:42;90059.66;;;23.71;32.87031
80869;BME280;70295;40.182;44.498;2023-09-18T09:44:42;90054.11;;;23.7;32.94941
80869;BME280;70295;40.182;44.498;2023-09-18T09:48:42;90044.66;;;23.75;33.14766
80869;BME280;70295;40.182;44.498;2023-09-18T09:54:42;90042.83;;;23.88;33.26094
80869;BME280;70295;40.182;44.498;2023-09-18T09:58:41;90033.2;;;23.91;32.9543
80869;BME280;70295;40.182;44.498;2023-09-18T10:00:43;90041.59;;;23.9;32.95332
80869;BME280;70295;40.182;44.498;2023-09-18T10:02:42;90046.12;;;23.91;32.9084
80869;BME280;70295;40.182;44.498;2023-09-18T10:04:42;90042.08;;;23.94;33.12812
80869;BME280;70295;40.182;44.498;2023-09-18T10:06:42;90043.57;;;23.98;33.22285
80869;BME280;70295;40.182;44.498;2023-09-18T10:08:42;90039.75;;;24.03;33.2043
80869;BME280;70295;40.182;44.498;2023-09-18T10:12:41;90044.89;;;24.1;32.59101
80869;BME280;70295;40.182;44.498;2023-09-18T10:14:42;90041.28;;;24.1;32.28047
80869;BME280;70295;40.182;44.498;2023-09-18T10:16:42;90037.77;;;24.08;32.15449
80869;BME280;70295;40.182;44.498;2023-09-18T10:20:42;90031.97;;;24.08;32.40547
80869;BME280;70295;40.182;44.498;2023-09-18T10:22:42;90029.53;;;24.09;32.47578
80869;BME280;70295;40.182;44.498;2023-09-18T10:24:41;90027.55;;;24.11;32.52266
80869;BME280;70295;40.182;44.498;2023-09-18T10:28:42;90011.81;;;24.13;32.39766
80869;BME280;70295;40.182;44.498;2023-09-18T10:30:41;90016.28;;;24.14;32.35273
80869;BME280;70295;40.182;44.498;2023-09-18T10:32:41;90010.96;;;24.14;32.37617
80869;BME280;70295;40.182;44.498;2023-09-18T10:34:41;90017.49;;;24.17;32.37812
80869;BME280;70295;40.182;44.498;2023-09-18T10:36:41;90022.52;;;24.18;32.42402
80869;BME280;70295;40.182;44.498;2023-09-18T10:38:41;90023.57;;;24.16;32.12617
80869;BME280;70295;40.182;44.498;2023-09-18T10:40:42;90009.16;;;24.12;32.14473
80869;BME280;70295;40.182;44.498;2023-09-18T10:42:41;90006.63;;;24.11;32.2707
80869;BME280;70295;40.182;44.498;2023-09-18T10:44:41;90008.91;;;24.13;32.35176
80869;BME280;70295;40.182;44.498;2023-09-18T10:46:41;90009.58;;;24.16;32.17109
80869;BME280;70295;40.182;44.498;2023-09-18T10:48:42;90005.05;;;24.18;32.03535
80869;BME280;70295;40.182;44.498;2023-09-18T10:50:41;90005.16;;;24.22;32.0373
80869;BME280;70295;40.182;44.498;2023-09-18T10:54:41;90005.72;;;24.29;31.9748
80869;BME280;70295;40.182;44.498;2023-09-18T10:56:41;90005.94;;;24.31;31.9416
80869;BME280;70295;40.182;44.498;2023-09-18T10:58:41;90004.48;;;24.31;31.82637
80869;BME280;70295;40.182;44.498;2023-09-18T11:00:41;90001.82;;;24.3;31.95234
80869;BME280;70295;40.182;44.498;2023-09-18T11:02:41;90005.28;;;24.3;31.96406
80869;BME280;70295;40.182;44.498;2023-09-18T11:04:42;90003.44;;;24.3;31.92988
80869;BME280;70295;40.182;44.498;2023-09-18T11:12:42;90006.65;;;24.36;31.49824
80869;BME280;70295;40.182;44.498;2023-09-18T11:16:41;90006.93;;;24.4;31.24922
80869;BME280;70295;40.182;44.498;2023-09-18T11:18:42;89997.41;;;24.41;31.23848
80869;BME280;70295;40.182;44.498;2023-09-18T11:20:41;90010.15;;;24.43;31.30879
80869;BME280;70295;40.182;44.498;2023-09-18T11:24:41;90003.2;;;24.46;31.29902
80869;BME280;70295;40.182;44.498;2023-09-18T11:26:41;89992.17;;;24.45;31.49336
80869;BME280;70295;40.182;44.498;2023-09-18T11:28:42;89989.94;;;24.48;31.73652
80869;BME280;70295;40.182;44.498;2023-09-18T11:32:41;89997.78;;;24.56;31.66133
80869;BME280;70295;40.182;44.498;2023-09-18T11:34:41;89996.17;;;24.58;31.53633
80869;BME280;70295;40.182;44.498;2023-09-18T11:36:41;89998.22;;;24.62;31.49434